Time,TemperatureF,DewpointF,PressureIn,WindDirection,WindDirectionDegrees,WindSpeedMPH,WindSpeedGustMPH,Humidity,HourlyPrecipIn,Conditions,Clouds,dailyrainin,SoftwareType,DateUTC
2013-01-08 00:00:00,33.8,24.4,30.12,NNW,339,0.0,0.0,68,0.00,,,0.00,VWS V14.01,2013-01-08 06:00:00,
2013-01-08 00:01:00,33.3,24.2,30.12,East,85,0.0,0.0,69,0.00,,,0.00,VWS V14.01,2013-01-08 06:01:00,
2013-01-08 00:06:00,33.0,24.0,30.12,East,85,0.0,0.0,69,0.00,,,0.00,VWS V14.01,2013-01-08 06:06:00,
2013-01-08 00:10:00,33.1,24.4,30.13,NNW,338,0.0,0.0,70,0.00,,,0.00,VWS V14.01,2013-01-08 06:10:00,
2013-01-08 00:11:00,32.7,24.0,30.12,East,84,0.0,0.0,70,0.00,,,0.00,VWS V14.01,2013-01-08 06:11:00,
2013-01-08 00:16:00,32.9,24.2,30.12,East,84,0.0,0.0,70,0.00,,,0.00,VWS V14.01,2013-01-08 06:16:00,
2013-01-08 00:20:00,32.4,24.1,30.13,NNW,339,0.0,0.0,71,0.00,,,0.00,VWS V14.01,2013-01-08 06:20:00,
2013-01-08 00:21:00,33.6,24.2,30.12,East,85,0.0,0.0,68,0.00,,,0.00,VWS V14.01,2013-01-08 06:21:00,
2013-01-08 00:26:00,34.0,24.6,30.12,East,84,0.0,1.0,68,0.00,,,0.00,VWS V14.01,2013-01-08 06:26:00,
2013-01-08 00:30:00,32.2,24.2,30.13,NNW,339,0.0,0.0,72,0.00,,,0.00,VWS V14.01,2013-01-08 06:30:00,
2013-01-08 00:31:00,34.0,24.6,30.12,East,84,0.0,0.0,68,0.00,,,0.00,VWS V14.01,2013-01-08 06:31:00,
2013-01-08 00:36:00,33.9,24.5,30.12,East,84,0.0,0.0,68,0.00,,,0.00,VWS V14.01,2013-01-08 06:36:00,
2013-01-08 00:40:00,31.8,23.8,30.13,NNW,339,0.0,0.0,72,0.00,,,0.00,VWS V14.01,2013-01-08 06:40:00,
2013-01-08 00:41:00,33.7,24.3,30.12,NNW,339,0.0,0.0,68,0.00,,,0.00,VWS V14.01,2013-01-08 06:41:00,
2013-01-08 00:46:00,33.6,24.2,30.12,NNW,339,0.0,0.0,68,0.00,,,0.00,VWS V14.01,2013-01-08 06:46:00,
2013-01-08 00:50:00,31.8,24.1,30.13,NNW,339,0.0,0.0,73,0.00,,,0.00,VWS V14.01,2013-01-08 06:50:00,
2013-01-08 00:51:00,33.8,24.4,30.12,NNW,339,0.0,0.0,68,0.00,,,0.00,VWS V14.01,2013-01-08 06:51:00,
2013-01-08 00:56:00,33.9,24.5,30.12,NNW,338,0.0,0.0,68,0.00,,,0.00,VWS V14.01,2013-01-08 06:56:00,
2013-01-08 01:00:00,32.0,24.3,30.13,NNW,339,0.0,0.0,73,0.00,,,0.00,VWS V14.01,2013-01-08 07:00:00,
2013-01-08 01:01:00,33.7,24.3,30.12,NNW,339,0.0,0.0,68,0.00,,,0.00,VWS V14.01,2013-01-08 07:01:00,
2013-01-08 01:06:00,33.3,24.2,30.13,NNW,339,0.0,0.0,69,0.00,,,0.00,VWS V14.01,2013-01-08 07:06:00,
2013-01-08 01:10:00,32.2,24.9,30.14,NNW,338,0.0,0.0,74,0.00,,,0.00,VWS V14.01,2013-01-08 07:10:00,
2013-01-08 01:11:00,33.1,24.4,30.13,NNW,338,0.0,0.0,70,0.00,,,0.00,VWS V14.01,2013-01-08 07:11:00,
2013-01-08 01:16:00,32.7,24.4,30.13,NNW,339,0.0,0.0,71,0.00,,,0.00,VWS V14.01,2013-01-08 07:16:00,
2013-01-08 01:20:00,31.8,24.1,30.13,NNW,339,0.0,0.0,73,0.00,,,0.00,VWS V14.01,2013-01-08 07:20:00,
2013-01-08 01:21:00,32.4,24.1,30.13,NNW,338,0.0,0.0,71,0.00,,,0.00,VWS V14.01,2013-01-08 07:21:00,
2013-01-08 01:26:00,32.3,24.3,30.13,NNW,338,0.0,0.0,72,0.00,,,0.00,VWS V14.01,2013-01-08 07:26:00,
2013-01-08 01:30:00,31.3,24.0,30.13,NNW,339,0.0,0.0,74,0.00,,,0.00,VWS V14.01,2013-01-08 07:30:00,
2013-01-08 01:31:00,32.1,24.1,30.13,NNW,338,0.0,0.0,72,0.00,,,0.00,VWS V14.01,2013-01-08 07:31:00,
2013-01-08 01:36:00,32.0,24.0,30.13,NNW,339,0.0,0.0,72,0.00,,,0.00,VWS V14.01,2013-01-08 07:36:00,
2013-01-08 01:40:00,31.1,23.8,30.13,NNW,339,0.0,0.0,74,0.00,,,0.00,VWS V14.01,2013-01-08 07:40:00,
2013-01-08 01:41:00,31.8,23.8,30.13,NNW,338,0.0,0.0,72,0.00,,,0.00,VWS V14.01,2013-01-08 07:41:00,
2013-01-08 01:46:00,31.8,24.1,30.13,NNW,339,0.0,0.0,73,0.00,,,0.00,VWS V14.01,2013-01-08 07:46:00,
2013-01-08 01:50:00,30.6,24.0,30.13,NNW,339,0.0,0.0,76,0.00,,,0.00,VWS V14.01,2013-01-08 07:50:00,
2013-01-08 01:51:00,31.8,24.1,30.13,NNW,339,0.0,0.0,73,0.00,,,0.00,VWS V14.01,2013-01-08 07:51:00,
2013-01-08 01:56:00,32.0,24.3,30.13,NNW,339,0.0,0.0,73,0.00,,,0.00,VWS V14.01,2013-01-08 07:56:00,
2013-01-08 02:00:00,30.0,23.7,30.13,NNW,338,0.0,0.0,77,0.00,,,0.00,VWS V14.01,2013-01-08 08:00:00,
2013-01-08 02:01:00,32.0,24.3,30.13,NNW,339,0.0,0.0,73,0.00,,,0.00,VWS V14.01,2013-01-08 08:01:00,
2013-01-08 02:06:00,32.2,24.5,30.13,NNW,339,0.0,0.0,73,0.00,,,0.00,VWS V14.01,2013-01-08 08:06:00,
2013-01-08 02:10:00,30.5,24.2,30.13,NNW,338,0.0,0.0,77,0.00,,,0.00,VWS V14.01,2013-01-08 08:10:00,
2013-01-08 02:11:00,32.2,25.2,30.13,NNW,339,0.0,0.0,75,0.00,,,0.00,VWS V14.01,2013-01-08 08:11:00,
2013-01-08 02:16:00,31.9,24.6,30.13,NNW,339,0.0,0.0,74,0.00,,,0.00,VWS V14.01,2013-01-08 08:16:00,
2013-01-08 02:20:00,29.9,23.6,30.13,NNW,338,0.0,0.0,77,0.00,,,0.00,VWS V14.01,2013-01-08 08:20:00,
2013-01-08 02:21:00,31.8,24.1,30.13,NNW,338,0.0,0.0,73,0.00,,,0.00,VWS V14.01,2013-01-08 08:21:00,
2013-01-08 02:26:00,31.5,24.2,30.13,NNW,339,0.0,0.0,74,0.00,,,0.00,VWS V14.01,2013-01-08 08:26:00,
2013-01-08 02:30:00,30.1,24.4,30.13,NNW,339,0.0,0.0,79,0.00,,,0.00,VWS V14.01,2013-01-08 08:30:00,
2013-01-08 02:31:00,31.3,24.0,30.13,NNW,338,0.0,0.0,74,0.00,,,0.00,VWS V14.01,2013-01-08 08:31:00,
2013-01-08 02:36:00,31.3,24.0,30.13,NNW,338,0.0,0.0,74,0.00,,,0.00,VWS V14.01,2013-01-08 08:36:00,
2013-01-08 02:40:00,29.9,23.6,30.13,NNW,338,0.0,0.0,77,0.00,,,0.00,VWS V14.01,2013-01-08 08:40:00,
2013-01-08 02:41:00,31.1,23.8,30.13,NNW,338,0.0,0.0,74,0.00,,,0.00,VWS V14.01,2013-01-08 08:41:00,
2013-01-08 02:46:00,30.8,23.8,30.13,NNW,338,0.0,0.0,75,0.00,,,0.00,VWS V14.01,2013-01-08 08:46:00,
2013-01-08 02:50:00,29.2,24.1,30.13,NNW,338,0.0,0.0,81,0.00,,,0.00,VWS V14.01,2013-01-08 08:50:00,
2013-01-08 02:51:00,30.6,24.0,30.13,NNW,339,0.0,0.0,76,0.00,,,0.00,VWS V14.01,2013-01-08 08:51:00,
2013-01-08 02:56:00,30.3,23.7,30.13,NNW,338,0.0,0.0,76,0.00,,,0.00,VWS V14.01,2013-01-08 08:56:00,
2013-01-08 03:00:00,29.4,23.7,30.13,NNW,338,0.0,0.0,79,0.00,,,0.00,VWS V14.01,2013-01-08 09:00:00,
2013-01-08 03:01:00,30.1,23.8,30.13,NNW,339,0.0,0.0,77,0.00,,,0.00,VWS V14.01,2013-01-08 09:01:00,
2013-01-08 03:06:00,30.4,24.4,30.13,NNW,339,0.0,0.0,78,0.00,,,0.00,VWS V14.01,2013-01-08 09:06:00,
2013-01-08 03:10:00,28.9,23.5,30.12,NNW,338,0.0,0.0,80,0.00,,,0.00,VWS V14.01,2013-01-08 09:10:00,
2013-01-08 03:11:00,30.5,24.2,30.13,NNW,339,0.0,0.0,77,0.00,,,0.00,VWS V14.01,2013-01-08 09:11:00,
2013-01-08 03:16:00,30.3,24.0,30.13,NNW,339,0.0,0.0,77,0.00,,,0.00,VWS V14.01,2013-01-08 09:16:00,
2013-01-08 03:20:00,28.6,23.2,30.12,NNW,338,0.0,0.0,80,0.00,,,0.00,VWS V14.01,2013-01-08 09:20:00,
2013-01-08 03:21:00,29.9,23.6,30.13,NNW,338,0.0,0.0,77,0.00,,,0.00,VWS V14.01,2013-01-08 09:21:00,
2013-01-08 03:26:00,29.7,23.7,30.13,NNW,339,0.0,0.0,78,0.00,,,0.00,VWS V14.01,2013-01-08 09:26:00,
2013-01-08 03:30:00,28.6,23.2,30.12,NNW,339,0.0,0.0,80,0.00,,,0.00,VWS V14.01,2013-01-08 09:30:00,
2013-01-08 03:31:00,30.2,24.5,30.13,NNW,339,0.0,0.0,79,0.00,,,0.00,VWS V14.01,2013-01-08 09:31:00,
2013-01-08 03:36:00,30.2,23.9,30.13,NNW,339,0.0,0.0,77,0.00,,,0.00,VWS V14.01,2013-01-08 09:36:00,
2013-01-08 03:40:00,28.3,22.9,30.11,NNW,338,0.0,0.0,80,0.00,,,0.00,VWS V14.01,2013-01-08 09:40:00,
2013-01-08 03:41:00,29.9,23.6,30.13,NNW,338,0.0,0.0,77,0.00,,,0.00,VWS V14.01,2013-01-08 09:41:00,
2013-01-08 03:46:00,29.4,23.4,30.13,NNW,339,0.0,0.0,78,0.00,,,0.00,VWS V14.01,2013-01-08 09:46:00,
2013-01-08 03:50:00,27.5,23.0,30.11,NNW,338,0.0,0.0,83,0.00,,,0.00,VWS V14.01,2013-01-08 09:50:00,
2013-01-08 03:51:00,29.2,24.1,30.13,NNW,339,0.0,0.0,81,0.00,,,0.00,VWS V14.01,2013-01-08 09:51:00,
2013-01-08 03:56:00,29.2,23.5,30.13,NNW,339,0.0,0.0,79,0.00,,,0.00,VWS V14.01,2013-01-08 09:56:00,
2013-01-08 04:00:00,27.2,22.7,30.11,NNW,339,0.0,0.0,83,0.00,,,0.00,VWS V14.01,2013-01-08 10:00:00,
2013-01-08 04:01:00,29.4,23.7,30.12,NNW,339,0.0,0.0,79,0.00,,,0.00,VWS V14.01,2013-01-08 10:01:00,
2013-01-08 04:06:00,29.3,23.3,30.12,NNW,338,0.0,0.0,78,0.00,,,0.00,VWS V14.01,2013-01-08 10:06:00,
2013-01-08 04:10:00,26.6,22.4,30.11,NNW,339,0.0,0.0,84,0.00,,,0.00,VWS V14.01,2013-01-08 10:10:00,
2013-01-08 04:11:00,28.9,23.5,30.12,NNW,339,0.0,0.0,80,0.00,,,0.00,VWS V14.01,2013-01-08 10:11:00,
2013-01-08 04:16:00,28.7,23.3,30.12,NNW,338,0.0,0.0,80,0.00,,,0.00,VWS V14.01,2013-01-08 10:16:00,
2013-01-08 04:20:00,26.6,22.7,30.11,NNW,339,0.0,0.0,85,0.00,,,0.00,VWS V14.01,2013-01-08 10:20:00,
2013-01-08 04:21:00,28.6,23.2,30.12,NNW,338,0.0,0.0,80,0.00,,,0.00,VWS V14.01,2013-01-08 10:21:00,
2013-01-08 04:25:00,28.4,23.3,30.12,NNW,338,0.0,0.0,81,0.00,,,0.00,VWS V14.01,2013-01-08 10:25:00,
2013-01-08 04:30:00,28.6,23.2,30.11,NNW,338,0.0,0.0,80,0.00,,,0.00,VWS V14.01,2013-01-08 10:30:00,
2013-01-08 04:35:00,28.6,23.2,30.11,NNW,339,0.0,0.0,80,0.00,,,0.00,VWS V14.01,2013-01-08 10:35:00,
2013-01-08 04:40:00,28.3,22.9,30.11,NNW,339,0.0,0.0,80,0.00,,,0.00,VWS V14.01,2013-01-08 10:40:00,
2013-01-08 04:45:00,27.9,22.8,30.11,NNW,339,0.0,0.0,81,0.00,,,0.00,VWS V14.01,2013-01-08 10:45:00,
2013-01-08 04:50:00,27.4,22.9,30.11,NNW,338,0.0,0.0,83,0.00,,,0.00,VWS V14.01,2013-01-08 10:50:00,
2013-01-08 04:55:00,27.2,22.7,30.11,NNW,338,0.0,0.0,83,0.00,,,0.00,VWS V14.01,2013-01-08 10:55:00,
2013-01-08 05:00:00,27.1,22.6,30.11,NNW,338,0.0,0.0,83,0.00,,,0.00,VWS V14.01,2013-01-08 11:00:00,
2013-01-08 05:05:00,26.8,22.6,30.11,NNW,338,0.0,0.0,84,0.00,,,0.00,VWS V14.01,2013-01-08 11:05:00,
2013-01-08 05:10:00,26.6,22.4,30.11,NNW,339,0.0,0.0,84,0.00,,,0.00,VWS V14.01,2013-01-08 11:10:00,
2013-01-08 05:15:00,26.6,22.4,30.11,NNW,338,0.0,0.0,84,0.00,,,0.00,VWS V14.01,2013-01-08 11:15:00,
2013-01-08 05:20:00,26.6,22.7,30.11,NNW,338,0.0,0.0,85,0.00,,,0.00,VWS V14.01,2013-01-08 11:20:00,
2013-01-08 05:25:00,26.9,22.7,30.11,NNW,339,0.0,0.0,84,0.00,,,0.00,VWS V14.01,2013-01-08 11:25:00,
2013-01-08 05:30:00,27.3,22.8,30.11,NNW,338,0.0,0.0,83,0.00,,,0.00,VWS V14.01,2013-01-08 11:30:00,
2013-01-08 05:35:00,27.4,22.6,30.11,NNW,339,0.0,0.0,82,0.00,,,0.00,VWS V14.01,2013-01-08 11:35:00,
2013-01-08 05:40:00,27.4,22.9,30.11,NNW,339,0.0,0.0,83,0.00,,,0.00,VWS V14.01,2013-01-08 11:40:00,
2013-01-08 05:45:00,27.5,22.7,30.11,NNW,339,0.0,0.0,82,0.00,,,0.00,VWS V14.01,2013-01-08 11:45:00,
2013-01-08 05:50:00,27.8,23.0,30.11,NNW,338,0.0,0.0,82,0.00,,,0.00,VWS V14.01,2013-01-08 11:50:00,
2013-01-08 05:55:00,28.0,22.9,30.11,NNW,339,0.0,0.0,81,0.00,,,0.00,VWS V14.01,2013-01-08 11:55:00,
2013-01-08 06:00:00,28.2,23.1,30.11,NNW,339,0.0,0.0,81,0.00,,,0.00,VWS V14.01,2013-01-08 12:00:00,
2013-01-08 06:05:00,28.3,23.2,30.11,NNW,338,0.0,0.0,81,0.00,,,0.00,VWS V14.01,2013-01-08 12:05:00,
2013-01-08 06:10:00,28.4,23.0,30.11,NNW,338,0.0,0.0,80,0.00,,,0.00,VWS V14.01,2013-01-08 12:10:00,
2013-01-08 06:15:00,28.2,22.8,30.11,NNW,339,0.0,0.0,80,0.00,,,0.00,VWS V14.01,2013-01-08 12:15:00,
2013-01-08 06:20:00,28.1,23.0,30.11,NNW,339,0.0,0.0,81,0.00,,,0.00,VWS V14.01,2013-01-08 12:20:00,
2013-01-08 06:25:00,27.9,22.5,30.12,NNW,338,0.0,0.0,80,0.00,,,0.00,VWS V14.01,2013-01-08 12:25:00,
2013-01-08 06:30:00,27.8,22.7,30.12,NNW,338,0.0,0.0,81,0.00,,,0.00,VWS V14.01,2013-01-08 12:30:00,
2013-01-08 06:35:00,27.6,22.8,30.12,NNW,339,0.0,0.0,82,0.00,,,0.00,VWS V14.01,2013-01-08 12:35:00,
2013-01-08 06:40:00,27.3,22.5,30.13,NNW,338,0.0,0.0,82,0.00,,,0.00,VWS V14.01,2013-01-08 12:40:00,
2013-01-08 06:45:00,27.1,22.6,30.13,NNW,339,0.0,0.0,83,0.00,,,0.00,VWS V14.01,2013-01-08 12:45:00,
2013-01-08 06:50:00,27.4,22.9,30.13,NNW,338,0.0,0.0,83,0.00,,,0.00,VWS V14.01,2013-01-08 12:50:00,
2013-01-08 06:55:00,27.6,22.8,30.13,NNW,338,0.0,0.0,82,0.00,,,0.00,VWS V14.01,2013-01-08 12:55:00,
2013-01-08 07:00:00,27.8,23.0,30.13,NNW,338,0.0,0.0,82,0.00,,,0.00,VWS V14.01,2013-01-08 13:00:00,
2013-01-08 07:05:00,27.7,22.9,30.13,NNW,339,0.0,0.0,82,0.00,,,0.00,VWS V14.01,2013-01-08 13:05:00,
2013-01-08 07:10:00,27.5,22.7,30.13,NNW,339,0.0,0.0,82,0.00,,,0.00,VWS V14.01,2013-01-08 13:10:00,
2013-01-08 07:15:00,27.2,22.4,30.13,NNW,339,0.0,0.0,82,0.00,,,0.00,VWS V14.01,2013-01-08 13:15:00,
2013-01-08 07:20:00,27.4,22.9,30.13,SSE,159,0.0,0.0,83,0.00,,,0.00,VWS V14.01,2013-01-08 13:20:00,
2013-01-08 07:25:00,28.2,23.4,30.13,SSE,160,0.0,1.0,82,0.00,,,0.00,VWS V14.01,2013-01-08 13:25:00,
2013-01-08 07:30:00,28.9,23.8,30.14,SSE,160,0.0,0.0,81,0.00,,,0.00,VWS V14.01,2013-01-08 13:30:00,
2013-01-08 07:35:00,29.2,24.1,30.13,SSE,160,0.0,0.0,81,0.00,,,0.00,VWS V14.01,2013-01-08 13:35:00,
2013-01-08 07:40:00,29.3,23.9,30.13,SSE,160,0.0,0.0,80,0.00,,,0.00,VWS V14.01,2013-01-08 13:40:00,
2013-01-08 07:45:00,29.6,24.2,30.13,SSE,165,0.0,0.0,80,0.00,,,0.00,VWS V14.01,2013-01-08 13:45:00,
2013-01-08 07:50:00,30.1,24.4,30.14,SSE,165,0.0,0.0,79,0.00,,,0.00,VWS V14.01,2013-01-08 13:50:00,
2013-01-08 07:55:00,30.8,24.8,30.14,SSE,165,0.0,0.0,78,0.00,,,0.00,VWS V14.01,2013-01-08 13:55:00,
2013-01-08 08:00:00,31.1,25.0,30.14,SSE,165,0.0,0.0,78,0.00,,,0.00,VWS V14.01,2013-01-08 14:00:00,
2013-01-08 08:05:00,31.5,25.1,30.14,SSE,163,0.0,0.0,77,0.00,,,0.00,VWS V14.01,2013-01-08 14:05:00,
2013-01-08 08:10:00,32.2,25.5,30.14,SE,142,0.0,0.0,76,0.00,,,0.00,VWS V14.01,2013-01-08 14:10:00,
2013-01-08 08:15:00,33.0,26.0,30.15,SE,143,0.0,1.0,75,0.00,,,0.00,VWS V14.01,2013-01-08 14:15:00,
2013-01-08 08:20:00,33.7,26.6,30.15,SE,143,0.0,0.0,75,0.00,,,0.00,VWS V14.01,2013-01-08 14:20:00,
2013-01-08 08:25:00,34.5,26.8,30.15,SSE,150,0.0,2.0,73,0.00,,,0.00,VWS V14.01,2013-01-08 14:25:00,
2013-01-08 08:30:00,35.3,27.2,30.15,SE,141,1.8,1.8,72,0.00,,,0.00,VWS V14.01,2013-01-08 14:30:00,
2013-01-08 08:35:00,35.9,27.1,30.15,South,176,1.8,3.0,70,0.00,,,0.00,VWS V14.01,2013-01-08 14:35:00,
2013-01-08 08:40:00,36.4,26.9,30.15,SSW,195,0.0,0.0,68,0.00,,,0.00,VWS V14.01,2013-01-08 14:40:00,
2013-01-08 08:45:00,36.8,26.9,30.15,SSE,167,1.8,2.0,67,0.00,,,0.00,VWS V14.01,2013-01-08 14:45:00,
2013-01-08 08:50:00,37.0,27.1,30.15,SSE,150,0.0,1.0,67,0.00,,,0.00,VWS V14.01,2013-01-08 14:50:00,
2013-01-08 08:55:00,37.3,27.0,30.15,SSE,155,0.0,3.0,66,0.00,,,0.00,VWS V14.01,2013-01-08 14:55:00,
2013-01-08 09:00:00,37.6,27.3,30.15,SSE,165,1.8,1.8,66,0.00,,,0.00,VWS V14.01,2013-01-08 15:00:00,
2013-01-08 09:05:00,38.2,27.9,30.14,SE,142,0.0,3.0,66,0.00,,,0.00,VWS V14.01,2013-01-08 15:05:00,
2013-01-08 09:10:00,39.4,27.9,30.14,South,177,1.8,2.0,63,0.00,,,0.00,VWS V14.01,2013-01-08 15:10:00,
2013-01-08 09:15:00,40.3,28.3,30.14,ENE,76,0.0,3.0,62,0.00,,,0.00,VWS V14.01,2013-01-08 15:15:00,
2013-01-08 09:20:00,41.0,28.6,30.14,SSE,158,0.0,2.0,61,0.00,,,0.00,VWS V14.01,2013-01-08 15:20:00,
2013-01-08 09:25:00,41.4,29.0,30.14,ESE,111,0.0,2.0,61,0.00,,,0.00,VWS V14.01,2013-01-08 15:25:00,
2013-01-08 09:30:00,41.7,28.9,30.14,SE,134,7.2,7.2,60,0.00,,,0.00,VWS V14.01,2013-01-08 15:30:00,
2013-01-08 09:35:00,42.1,29.2,30.14,South,183,0.0,5.0,60,0.00,,,0.00,VWS V14.01,2013-01-08 15:35:00,
2013-01-08 09:40:00,42.3,29.4,30.14,South,189,7.2,7.2,60,0.00,,,0.00,VWS V14.01,2013-01-08 15:40:00,
2013-01-08 09:45:00,42.8,29.5,30.14,SSE,153,3.6,5.0,59,0.00,,,0.00,VWS V14.01,2013-01-08 15:45:00,
2013-01-08 09:50:00,42.9,29.6,30.14,South,186,0.0,5.0,59,0.00,,,0.00,VWS V14.01,2013-01-08 15:50:00,
2013-01-08 09:55:00,43.2,30.3,30.14,SSE,158,3.6,6.0,60,0.00,,,0.00,VWS V14.01,2013-01-08 15:55:00,
2013-01-08 10:00:00,43.8,30.4,30.14,ESE,105,0.0,2.0,59,0.00,,,0.00,VWS V14.01,2013-01-08 16:00:00,
2013-01-08 10:05:00,44.6,31.2,30.13,SSW,207,1.8,5.0,59,0.00,,,0.00,VWS V14.01,2013-01-08 16:05:00,
2013-01-08 10:10:00,45.3,31.0,30.13,SSE,148,1.8,4.0,57,0.00,,,0.00,VWS V14.01,2013-01-08 16:10:00,
2013-01-08 10:15:00,45.8,31.9,30.14,East,100,3.6,5.0,58,0.00,,,0.00,VWS V14.01,2013-01-08 16:15:00,
2013-01-08 10:20:00,45.9,31.5,30.14,SE,143,7.2,7.2,57,0.00,,,0.00,VWS V14.01,2013-01-08 16:20:00,
2013-01-08 10:25:00,46.0,31.6,30.14,SE,143,3.6,6.0,57,0.00,,,0.00,VWS V14.01,2013-01-08 16:25:00,
2013-01-08 10:30:00,46.2,32.2,30.14,South,176,3.6,3.6,58,0.00,,,0.00,VWS V14.01,2013-01-08 16:30:00,
2013-01-08 10:35:00,46.5,32.5,30.14,SW,219,0.0,6.0,58,0.00,,,0.00,VWS V14.01,2013-01-08 16:35:00,
2013-01-08 10:40:00,47.2,32.8,30.14,South,174,5.4,5.4,57,0.00,,,0.00,VWS V14.01,2013-01-08 16:40:00,
2013-01-08 10:45:00,47.6,33.1,30.14,SSE,159,7.2,7.2,57,0.00,,,0.00,VWS V14.01,2013-01-08 16:45:00,
2013-01-08 10:50:00,48.1,33.2,30.14,South,187,3.6,7.0,56,0.00,,,0.00,VWS V14.01,2013-01-08 16:50:00,
2013-01-08 10:55:00,49.0,34.0,30.13,South,186,3.6,7.0,56,0.00,,,0.00,VWS V14.01,2013-01-08 16:55:00,
2013-01-08 11:00:00,49.8,34.3,30.12,SSW,193,0.0,1.0,55,0.00,,,0.00,VWS V14.01,2013-01-08 17:00:00,
2013-01-08 11:05:00,50.3,34.3,30.12,SSE,160,1.8,7.0,54,0.00,,,0.00,VWS V14.01,2013-01-08 17:05:00,
2013-01-08 11:10:00,50.7,35.6,30.12,SSE,160,5.4,7.0,56,0.00,,,0.00,VWS V14.01,2013-01-08 17:10:00,
2013-01-08 11:15:00,50.7,35.6,30.12,SSE,159,10.8,10.8,56,0.00,,,0.00,VWS V14.01,2013-01-08 17:15:00,
2013-01-08 11:20:00,50.6,35.9,30.11,SSW,197,3.6,4.0,57,0.00,,,0.00,VWS V14.01,2013-01-08 17:20:00,
2013-01-08 11:25:00,51.0,36.3,30.11,ESE,110,7.2,7.2,57,0.00,,,0.00,VWS V14.01,2013-01-08 17:25:00,
2013-01-08 11:30:00,51.2,36.1,30.10,South,191,5.4,5.4,56,0.00,,,0.00,VWS V14.01,2013-01-08 17:30:00,
2013-01-08 11:35:00,51.4,36.7,30.10,South,169,12.6,12.6,57,0.00,,,0.00,VWS V14.01,2013-01-08 17:35:00,
2013-01-08 11:40:00,51.6,36.9,30.10,East,97,0.0,0.0,57,0.00,,,0.00,VWS V14.01,2013-01-08 17:40:00,
2013-01-08 11:45:00,51.9,36.7,30.09,SW,218,5.4,9.0,56,0.00,,,0.00,VWS V14.01,2013-01-08 17:45:00,
2013-01-08 11:50:00,51.9,37.2,30.09,SSW,200,7.2,7.2,57,0.00,,,0.00,VWS V14.01,2013-01-08 17:50:00,
2013-01-08 11:55:00,52.1,36.9,30.08,SSE,168,5.4,8.0,56,0.00,,,0.00,VWS V14.01,2013-01-08 17:55:00,
2013-01-08 12:00:00,52.4,37.6,30.08,SSW,208,3.6,3.6,57,0.00,,,0.00,VWS V14.01,2013-01-08 18:00:00,
2013-01-08 12:05:00,52.9,37.7,30.08,SSW,193,7.2,7.2,56,0.00,,,0.00,VWS V14.01,2013-01-08 18:05:00,
2013-01-08 12:10:00,53.4,37.7,30.08,SSW,201,5.4,5.4,55,0.00,,,0.00,VWS V14.01,2013-01-08 18:10:00,
2013-01-08 12:15:00,53.9,37.7,30.08,South,191,5.4,9.0,54,0.00,,,0.00,VWS V14.01,2013-01-08 18:15:00,
2013-01-08 12:20:00,54.2,37.5,30.07,SSW,196,3.6,5.0,53,0.00,,,0.00,VWS V14.01,2013-01-08 18:20:00,
2013-01-08 12:25:00,54.8,38.0,30.07,South,176,7.2,7.2,53,0.00,,,0.00,VWS V14.01,2013-01-08 18:25:00,
2013-01-08 12:30:00,54.8,38.0,30.06,SW,231,7.2,7.2,53,0.00,,,0.00,VWS V14.01,2013-01-08 18:30:00,
2013-01-08 12:35:00,55.1,37.8,30.05,SSE,159,9.0,10.0,52,0.00,,,0.00,VWS V14.01,2013-01-08 18:35:00,
2013-01-08 12:40:00,55.4,38.1,30.05,SE,143,3.6,7.0,52,0.00,,,0.00,VWS V14.01,2013-01-08 18:40:00,
2013-01-08 12:45:00,56.0,38.6,30.05,SW,225,7.2,10.0,52,0.00,,,0.00,VWS V14.01,2013-01-08 18:45:00,
2013-01-08 12:50:00,56.5,39.1,30.05,SSE,147,14.4,14.4,52,0.00,,,0.00,VWS V14.01,2013-01-08 18:50:00,
2013-01-08 12:55:00,56.5,39.6,30.05,SW,224,10.8,12.0,53,0.00,,,0.00,VWS V14.01,2013-01-08 18:55:00,
2013-01-08 13:00:00,56.1,39.7,30.05,South,169,14.4,14.4,54,0.00,,,0.00,VWS V14.01,2013-01-08 19:00:00,
2013-01-08 13:05:00,56.0,39.6,30.05,South,191,16.2,16.2,54,0.00,,,0.00,VWS V14.01,2013-01-08 19:05:00,
2013-01-08 13:10:00,56.2,39.8,30.04,SW,228,9.0,9.0,54,0.00,,,0.00,VWS V14.01,2013-01-08 19:10:00,
2013-01-08 13:15:00,56.4,39.5,30.04,South,180,10.8,10.8,53,0.00,,,0.00,VWS V14.01,2013-01-08 19:15:00,
2013-01-08 13:20:00,56.8,39.9,30.04,South,170,3.6,3.6,53,0.00,,,0.00,VWS V14.01,2013-01-08 19:20:00,
2013-01-08 13:25:00,57.7,39.7,30.04,SSE,159,3.6,7.0,51,0.00,,,0.00,VWS V14.01,2013-01-08 19:25:00,
2013-01-08 13:30:00,58.4,39.8,30.04,SSE,164,12.6,12.6,50,0.00,,,0.00,VWS V14.01,2013-01-08 19:30:00,
2013-01-08 13:35:00,58.3,40.3,30.04,SSE,155,5.4,6.0,51,0.00,,,0.00,VWS V14.01,2013-01-08 19:35:00,
2013-01-08 13:40:00,58.6,40.0,30.04,SSE,155,7.2,8.0,50,0.00,,,0.00,VWS V14.01,2013-01-08 19:40:00,
2013-01-08 13:45:00,58.2,39.7,30.04,ESE,119,5.4,8.0,50,0.00,,,0.00,VWS V14.01,2013-01-08 19:45:00,
2013-01-08 13:50:00,57.9,39.9,30.05,SSW,203,10.8,10.8,51,0.00,,,0.00,VWS V14.01,2013-01-08 19:50:00,
2013-01-08 13:55:00,57.8,40.3,30.05,South,173,12.6,12.6,52,0.00,,,0.00,VWS V14.01,2013-01-08 19:55:00,
2013-01-08 14:00:00,57.6,40.1,30.06,South,173,18.0,18.0,52,0.00,,,0.00,VWS V14.01,2013-01-08 20:00:00,
2013-01-08 14:05:00,57.3,39.8,30.06,SSE,164,3.6,12.0,52,0.00,,,0.00,VWS V14.01,2013-01-08 20:05:00,
2013-01-08 14:10:00,57.3,39.8,30.06,South,179,12.6,12.6,52,0.00,,,0.00,VWS V14.01,2013-01-08 20:10:00,
2013-01-08 14:15:00,57.3,39.8,30.06,SW,215,5.4,8.0,52,0.00,,,0.00,VWS V14.01,2013-01-08 20:15:00,
2013-01-08 14:20:00,57.3,39.8,30.05,SE,145,7.2,8.0,52,0.00,,,0.00,VWS V14.01,2013-01-08 20:20:00,
2013-01-08 14:25:00,57.4,39.9,30.05,South,169,5.4,8.0,52,0.00,,,0.00,VWS V14.01,2013-01-08 20:25:00,
2013-01-08 14:30:00,57.5,40.0,30.06,WSW,254,0.0,0.0,52,0.00,,,0.00,VWS V14.01,2013-01-08 20:30:00,
2013-01-08 14:35:00,57.5,40.0,30.05,SW,214,5.4,5.4,52,0.00,,,0.00,VWS V14.01,2013-01-08 20:35:00,
2013-01-08 14:40:00,57.3,39.8,30.05,SW,236,3.6,3.6,52,0.00,,,0.00,VWS V14.01,2013-01-08 20:40:00,
2013-01-08 14:45:00,57.2,39.8,30.05,South,182,7.2,8.0,52,0.00,,,0.00,VWS V14.01,2013-01-08 20:45:00,
2013-01-08 14:50:00,57.0,39.6,30.05,WSW,238,3.6,3.6,52,0.00,,,0.00,VWS V14.01,2013-01-08 20:50:00,
2013-01-08 14:55:00,57.0,40.1,30.06,South,172,9.0,9.0,53,0.00,,,0.00,VWS V14.01,2013-01-08 20:55:00,
2013-01-08 15:00:00,56.9,40.0,30.06,South,173,9.0,9.0,53,0.00,,,0.00,VWS V14.01,2013-01-08 21:00:00,
2013-01-08 15:05:00,57.0,40.1,30.06,SW,217,0.0,6.0,53,0.00,,,0.00,VWS V14.01,2013-01-08 21:05:00,
2013-01-08 15:10:00,56.9,40.0,30.06,SSW,194,5.4,5.4,53,0.00,,,0.00,VWS V14.01,2013-01-08 21:10:00,
2013-01-08 15:15:00,56.7,39.8,30.06,South,179,7.2,7.2,53,0.00,,,0.00,VWS V14.01,2013-01-08 21:15:00,
2013-01-08 15:20:00,56.4,40.0,30.07,South,191,12.6,12.6,54,0.00,,,0.00,VWS V14.01,2013-01-08 21:20:00,
2013-01-08 15:25:00,56.3,39.9,30.07,SSE,167,3.6,9.0,54,0.00,,,0.00,VWS V14.01,2013-01-08 21:25:00,
2013-01-08 15:30:00,56.2,40.3,30.06,SSW,200,5.4,5.4,55,0.00,,,0.00,VWS V14.01,2013-01-08 21:30:00,
2013-01-08 15:35:00,56.0,40.5,30.07,SSW,198,5.4,9.0,56,0.00,,,0.00,VWS V14.01,2013-01-08 21:35:00,
2013-01-08 15:40:00,55.8,40.4,30.07,SSE,152,5.4,5.4,56,0.00,,,0.00,VWS V14.01,2013-01-08 21:40:00,
2013-01-08 15:45:00,55.6,40.2,30.07,SSE,167,1.8,6.0,56,0.00,,,0.00,VWS V14.01,2013-01-08 21:45:00,
2013-01-08 15:50:00,55.4,40.4,30.08,South,177,5.4,5.4,57,0.00,,,0.00,VWS V14.01,2013-01-08 21:50:00,
2013-01-08 15:55:00,55.1,40.2,30.08,South,190,1.8,8.0,57,0.00,,,0.00,VWS V14.01,2013-01-08 21:55:00,
2013-01-08 16:00:00,54.9,40.4,30.08,South,184,1.8,1.8,58,0.00,,,0.00,VWS V14.01,2013-01-08 22:00:00,
2013-01-08 16:05:00,54.7,40.2,30.08,SW,229,3.6,9.0,58,0.00,,,0.00,VWS V14.01,2013-01-08 22:05:00,
2013-01-08 16:10:00,54.5,40.0,30.07,SW,236,5.4,5.4,58,0.00,,,0.00,VWS V14.01,2013-01-08 22:10:00,
2013-01-08 16:15:00,54.3,39.8,30.07,SW,235,3.6,8.0,58,0.00,,,0.00,VWS V14.01,2013-01-08 22:15:00,
2013-01-08 16:20:00,54.2,40.2,30.07,SSW,197,1.8,1.8,59,0.00,,,0.00,VWS V14.01,2013-01-08 22:20:00,
2013-01-08 16:25:00,53.9,40.3,30.08,South,172,1.8,4.0,60,0.00,,,0.00,VWS V14.01,2013-01-08 22:25:00,
2013-01-08 16:30:00,53.7,40.2,30.07,South,188,3.6,3.6,60,0.00,,,0.00,VWS V14.01,2013-01-08 22:30:00,
2013-01-08 16:35:00,53.4,40.3,30.08,SSE,166,10.8,10.8,61,0.00,,,0.00,VWS V14.01,2013-01-08 22:35:00,
2013-01-08 16:40:00,53.0,41.2,30.08,SSW,204,3.6,8.0,64,0.00,,,0.00,VWS V14.01,2013-01-08 22:40:00,
2013-01-08 16:45:00,52.2,42.7,30.08,SSW,210,0.0,5.0,70,0.01,,,0.01,VWS V14.01,2013-01-08 22:45:00,
2013-01-08 16:50:00,51.1,43.5,30.08,South,172,0.0,5.0,75,0.02,,,0.02,VWS V14.01,2013-01-08 22:50:00,
2013-01-08 16:55:00,50.4,43.8,30.08,South,172,0.0,0.0,78,0.02,,,0.02,VWS V14.01,2013-01-08 22:55:00,
2013-01-08 17:00:00,50.0,43.1,30.08,South,172,0.0,0.0,77,0.03,,,0.03,VWS V14.01,2013-01-08 23:00:00,
2013-01-08 17:05:00,49.7,44.8,30.08,South,172,0.0,0.0,83,0.04,,,0.04,VWS V14.01,2013-01-08 23:05:00,
2013-01-08 17:10:00,49.3,44.7,30.07,South,172,0.0,0.0,84,0.04,,,0.04,VWS V14.01,2013-01-08 23:10:00,
2013-01-08 17:15:00,49.0,44.4,30.07,SE,132,0.0,0.0,84,0.04,,,0.04,VWS V14.01,2013-01-08 23:15:00,
2013-01-08 17:20:00,48.9,44.3,30.08,SE,132,0.0,0.0,84,0.04,,,0.04,VWS V14.01,2013-01-08 23:20:00,
2013-01-08 17:25:00,48.8,45.1,30.08,SE,133,0.0,1.0,87,0.04,,,0.04,VWS V14.01,2013-01-08 23:25:00,
2013-01-08 17:30:00,48.5,45.1,30.08,SE,134,0.0,1.0,88,0.04,,,0.04,VWS V14.01,2013-01-08 23:30:00,
2013-01-08 17:35:00,48.3,44.9,30.09,SE,134,0.0,0.0,88,0.04,,,0.04,VWS V14.01,2013-01-08 23:35:00,
2013-01-08 17:40:00,48.2,44.8,30.09,SE,134,0.0,1.0,88,0.04,,,0.04,VWS V14.01,2013-01-08 23:40:00,
2013-01-08 17:45:00,48.1,44.7,30.09,SE,134,0.0,0.0,88,0.04,,,0.04,VWS V14.01,2013-01-08 23:45:00,
2013-01-08 17:50:00,48.0,44.6,30.09,SE,134,0.0,0.0,88,0.04,,,0.04,VWS V14.01,2013-01-08 23:50:00,
2013-01-08 17:55:00,48.1,45.3,30.08,SE,134,0.0,0.0,90,0.02,,,0.04,VWS V14.01,2013-01-08 23:55:00,
2013-01-08 18:00:00,47.9,45.4,30.08,East,94,0.0,0.0,91,0.02,,,0.04,VWS V14.01,2013-01-09 00:00:00,
2013-01-08 18:05:00,47.8,45.3,30.09,East,93,0.0,0.0,91,0.01,,,0.04,VWS V14.01,2013-01-09 00:05:00,
2013-01-08 18:10:00,47.7,45.2,30.09,East,93,0.0,0.0,91,0.02,,,0.05,VWS V14.01,2013-01-09 00:10:00,
2013-01-08 18:15:00,47.6,45.1,30.09,East,94,0.0,0.0,91,0.01,,,0.05,VWS V14.01,2013-01-09 00:15:00,
2013-01-08 18:20:00,47.6,45.1,30.09,NW,321,0.0,1.0,91,0.02,,,0.06,VWS V14.01,2013-01-09 00:20:00,
2013-01-08 18:25:00,47.5,45.3,30.10,NW,320,0.0,1.0,92,0.03,,,0.07,VWS V14.01,2013-01-09 00:25:00,
2013-01-08 18:30:00,47.3,45.1,30.10,WNW,287,0.0,3.0,92,0.03,,,0.07,VWS V14.01,2013-01-09 00:30:00,
2013-01-08 18:35:00,47.1,44.9,30.10,NNW,332,1.8,2.0,92,0.03,,,0.07,VWS V14.01,2013-01-09 00:35:00,
2013-01-08 18:40:00,46.9,44.7,30.10,WNW,286,0.0,2.0,92,0.03,,,0.07,VWS V14.01,2013-01-09 00:40:00,
2013-01-08 18:45:00,46.8,44.6,30.10,NNW,345,1.8,1.8,92,0.03,,,0.07,VWS V14.01,2013-01-09 00:45:00,
2013-01-08 18:50:00,46.7,44.5,30.10,NNE,26,0.0,1.0,92,0.03,,,0.07,VWS V14.01,2013-01-09 00:50:00,
2013-01-08 18:55:00,46.7,44.5,30.11,NNW,340,0.0,1.0,92,0.03,,,0.07,VWS V14.01,2013-01-09 00:55:00,
2013-01-08 19:00:00,46.6,44.4,30.11,NNW,340,0.0,1.0,92,0.03,,,0.07,VWS V14.01,2013-01-09 01:00:00,
2013-01-08 19:05:00,46.6,44.7,30.11,NNW,340,0.0,0.0,93,0.03,,,0.07,VWS V14.01,2013-01-09 01:05:00,
2013-01-08 19:10:00,46.6,44.7,30.11,NNW,343,0.0,0.0,93,0.03,,,0.07,VWS V14.01,2013-01-09 01:10:00,
2013-01-08 19:15:00,46.6,44.7,30.11,NNW,343,0.0,0.0,93,0.02,,,0.07,VWS V14.01,2013-01-09 01:15:00,
2013-01-08 19:20:00,46.6,44.7,30.11,NNW,342,0.0,0.0,93,0.02,,,0.07,VWS V14.01,2013-01-09 01:20:00,
2013-01-08 19:25:00,46.6,44.7,30.11,North,352,0.0,1.0,93,0.01,,,0.07,VWS V14.01,2013-01-09 01:25:00,
2013-01-08 19:30:00,46.6,44.7,30.11,North,352,0.0,1.0,93,0.01,,,0.07,VWS V14.01,2013-01-09 01:30:00,
2013-01-08 19:35:00,46.6,44.7,30.11,East,80,0.0,1.0,93,0.00,,,0.07,VWS V14.01,2013-01-09 01:35:00,
2013-01-08 19:40:00,46.5,44.6,30.11,NE,56,0.0,1.0,93,0.00,,,0.07,VWS V14.01,2013-01-09 01:40:00,
2013-01-08 19:45:00,46.5,44.6,30.11,NE,56,0.0,0.0,93,0.00,,,0.07,VWS V14.01,2013-01-09 01:45:00,
2013-01-08 19:50:00,46.5,44.6,30.12,NE,55,0.0,0.0,93,0.00,,,0.07,VWS V14.01,2013-01-09 01:50:00,
2013-01-08 19:55:00,46.5,44.6,30.12,NE,55,0.0,0.0,93,0.00,,,0.07,VWS V14.01,2013-01-09 01:55:00,
2013-01-08 20:00:00,46.5,44.6,30.12,NE,55,0.0,0.0,93,0.00,,,0.07,VWS V14.01,2013-01-09 02:00:00,
2013-01-08 20:05:00,46.5,44.6,30.13,ENE,57,0.0,0.0,93,0.00,,,0.07,VWS V14.01,2013-01-09 02:05:00,
2013-01-08 20:10:00,46.5,44.9,30.13,NE,55,0.0,0.0,94,0.00,,,0.07,VWS V14.01,2013-01-09 02:10:00,
2013-01-08 20:15:00,46.4,44.8,30.13,NE,56,0.0,0.0,94,0.00,,,0.07,VWS V14.01,2013-01-09 02:15:00,
2013-01-08 20:20:00,46.5,44.9,30.13,ENE,61,0.0,0.0,94,0.00,,,0.07,VWS V14.01,2013-01-09 02:20:00,
2013-01-08 20:25:00,46.5,44.9,30.12,ENE,62,0.0,0.0,94,0.00,,,0.07,VWS V14.01,2013-01-09 02:25:00,
2013-01-08 20:30:00,46.4,44.8,30.11,ENE,62,0.0,1.0,94,0.00,,,0.07,VWS V14.01,2013-01-09 02:30:00,
2013-01-08 20:35:00,46.3,44.7,30.11,ENE,62,0.0,0.0,94,0.00,,,0.07,VWS V14.01,2013-01-09 02:35:00,
2013-01-08 20:40:00,46.4,44.8,30.12,ENE,63,0.0,1.0,94,0.00,,,0.07,VWS V14.01,2013-01-09 02:40:00,
2013-01-08 20:45:00,46.5,44.9,30.12,North,9,1.8,1.8,94,0.00,,,0.07,VWS V14.01,2013-01-09 02:45:00,
2013-01-08 20:50:00,46.6,45.0,30.12,NNE,26,0.0,2.0,94,0.00,,,0.07,VWS V14.01,2013-01-09 02:50:00,
2013-01-08 20:55:00,46.7,45.1,30.12,ENE,78,0.0,0.0,94,0.00,,,0.07,VWS V14.01,2013-01-09 02:55:00,
2013-01-08 21:00:00,46.7,45.1,30.13,ENE,78,0.0,0.0,94,0.00,,,0.07,VWS V14.01,2013-01-09 03:00:00,
2013-01-08 21:05:00,46.7,45.1,30.13,NNW,327,0.0,1.0,94,0.00,,,0.07,VWS V14.01,2013-01-09 03:05:00,
2013-01-08 21:10:00,46.7,45.1,30.13,NNE,25,0.0,1.0,94,0.00,,,0.07,VWS V14.01,2013-01-09 03:10:00,
2013-01-08 21:15:00,46.8,45.2,30.12,NNE,26,0.0,1.0,94,0.00,,,0.07,VWS V14.01,2013-01-09 03:15:00,
2013-01-08 21:20:00,46.8,45.2,30.12,NNE,27,0.0,1.0,94,0.00,,,0.07,VWS V14.01,2013-01-09 03:20:00,
2013-01-08 21:25:00,46.9,45.3,30.11,East,84,0.0,1.0,94,0.00,,,0.07,VWS V14.01,2013-01-09 03:25:00,
2013-01-08 21:30:00,46.8,45.2,30.11,East,79,0.0,1.0,94,0.00,,,0.07,VWS V14.01,2013-01-09 03:30:00,
2013-01-08 21:35:00,46.7,45.1,30.12,North,351,3.6,3.6,94,0.00,,,0.07,VWS V14.01,2013-01-09 03:35:00,
2013-01-08 21:40:00,46.8,45.2,30.13,NW,319,0.0,2.0,94,0.00,,,0.07,VWS V14.01,2013-01-09 03:40:00,
2013-01-08 21:45:00,46.8,45.5,30.14,NNW,340,0.0,2.0,95,0.00,,,0.07,VWS V14.01,2013-01-09 03:45:00,
2013-01-08 21:50:00,46.8,45.2,30.13,NW,305,0.0,2.0,94,0.00,,,0.07,VWS V14.01,2013-01-09 03:50:00,
2013-01-08 21:55:00,46.8,45.2,30.14,WNW,290,0.0,2.0,94,0.00,,,0.07,VWS V14.01,2013-01-09 03:55:00,
2013-01-08 22:00:00,46.7,45.3,30.14,WNW,300,0.0,2.0,95,0.00,,,0.07,VWS V14.01,2013-01-09 04:00:00,
2013-01-08 22:05:00,46.6,45.2,30.14,North,6,0.0,2.0,95,0.00,,,0.07,VWS V14.01,2013-01-09 04:05:00,
2013-01-08 22:10:00,46.5,45.2,30.14,NNW,337,0.0,2.0,95,0.00,,,0.07,VWS V14.01,2013-01-09 04:10:00,
2013-01-08 22:15:00,46.5,45.2,30.14,NNW,344,1.8,2.0,95,0.00,,,0.07,VWS V14.01,2013-01-09 04:15:00,
2013-01-08 22:20:00,46.5,45.1,30.15,NNE,12,1.0,1.0,95,0.00,,,0.07,Wunderground v.1.15,2013-01-09 04:20:00,
2013-01-08 22:25:00,46.5,45.2,30.15,NNW,327,0.0,1.0,95,0.00,,,0.07,VWS V14.01,2013-01-09 04:25:00,
2013-01-08 22:30:00,46.4,45.0,30.15,NNE,13,3.6,4.0,95,0.00,,,0.07,VWS V14.01,2013-01-09 04:30:00,
2013-01-08 22:35:00,46.5,45.2,30.16,North,360,0.0,2.0,95,0.00,,,0.07,VWS V14.01,2013-01-09 04:35:00,
2013-01-08 22:40:00,46.5,45.2,30.17,North,358,1.8,3.0,95,0.00,,,0.07,VWS V14.01,2013-01-09 04:40:00,
2013-01-08 22:45:00,46.6,45.2,30.17,NNE,31,0.0,3.0,95,0.00,,,0.07,VWS V14.01,2013-01-09 04:45:00,
2013-01-08 22:50:00,46.6,45.2,30.17,NNE,33,0.0,3.0,95,0.00,,,0.07,VWS V14.01,2013-01-09 04:50:00,
2013-01-08 22:55:00,46.7,45.3,30.17,North,358,0.0,2.0,95,0.00,,,0.07,VWS V14.01,2013-01-09 04:55:00,
2013-01-08 23:00:00,46.8,45.5,30.18,NE,41,0.0,2.0,95,0.00,,,0.07,VWS V14.01,2013-01-09 05:00:00,
2013-01-08 23:03:00,46.8,45.5,30.18,North,11,0.0,1.0,95,0.00,,,0.07,VWS V14.01,2013-01-09 05:03:00,
2013-01-08 23:08:00,46.9,45.5,30.18,North,357,1.8,3.0,95,0.00,,,0.07,VWS V14.01,2013-01-09 05:08:00,
2013-01-08 23:10:00,46.9,45.5,30.18,NNE,26,3.6,3.6,95,0.00,,,0.07,VWS V15.00,2013-01-09 05:10:00,
2013-01-08 23:13:00,46.9,45.5,30.18,NNW,329,1.8,3.0,95,0.00,,,0.07,VWS V14.01,2013-01-09 05:13:00,
2013-01-08 23:18:00,46.9,45.5,30.19,NE,37,0.0,3.0,95,0.00,,,0.07,VWS V14.01,2013-01-09 05:18:00,
2013-01-08 23:20:00,47.0,45.7,30.20,NNW,344,0.0,2.0,95,0.00,,,0.00,VWS V14.01,2013-01-09 05:20:00,
2013-01-08 23:23:00,46.9,45.5,30.18,NNE,21,3.6,3.6,95,0.00,,,0.07,VWS V14.01,2013-01-09 05:23:00,
2013-01-08 23:28:00,46.9,45.5,30.19,NNE,21,0.0,2.0,95,0.00,,,0.07,VWS V14.01,2013-01-09 05:28:00,
2013-01-08 23:30:00,47.0,45.7,30.20,NNW,344,0.0,0.0,95,0.00,,,0.00,VWS V14.01,2013-01-09 05:30:00,
2013-01-08 23:33:00,46.9,45.5,30.19,NNE,15,0.0,0.0,95,0.00,,,0.07,VWS V14.01,2013-01-09 05:33:00,
2013-01-08 23:38:00,46.9,45.5,30.19,NNE,15,0.0,0.0,95,0.00,,,0.07,VWS V14.01,2013-01-09 05:38:00,
2013-01-08 23:40:00,46.9,45.5,30.20,NNW,344,0.0,0.0,95,0.01,,,0.01,VWS V14.01,2013-01-09 05:40:00,
2013-01-08 23:43:00,46.9,45.5,30.20,East,89,0.0,1.0,95,0.00,,,0.07,VWS V14.01,2013-01-09 05:43:00,
2013-01-08 23:48:00,46.9,45.5,30.20,East,91,0.0,1.0,95,0.00,,,0.07,VWS V14.01,2013-01-09 05:48:00,
2013-01-08 23:50:00,46.9,45.5,30.20,NNW,345,0.0,0.0,95,0.02,,,0.02,VWS V14.01,2013-01-09 05:50:00,
2013-01-08 23:53:00,47.0,45.7,30.20,NE,37,0.0,2.0,95,0.00,,,0.07,VWS V14.01,2013-01-09 05:53:00,
2013-01-08 23:58:00,47.1,45.7,30.20,NNE,30,0.0,2.0,95,0.00,,,0.07,VWS V14.01,2013-01-09 05:58:00,